Map

Track Data

SID SEASON NUMBER BASIN SUBBASIN NAME ISO_TIME NATURE LAT LON WMO_WIND WMO_PRES WMO_AGENCY TRACK_TYPE DIST2LAND LANDFALL IFLAG USA_AGENCY USA_ATCF_ID USA_LAT USA_LON USA_RECORD USA_STATUS USA_WIND USA_PRES USA_SSHS USA_R34_NE USA_R34_SE USA_R34_SW USA_R34_NW USA_R50_NE USA_R50_SE USA_R50_SW USA_R50_NW USA_R64_NE USA_R64_SE USA_R64_SW USA_R64_NW USA_POCI USA_ROCI USA_RMW USA_EYE TOKYO_LAT TOKYO_LON TOKYO_GRADE TOKYO_WIND TOKYO_PRES TOKYO_R50_DIR TOKYO_R50_LONG TOKYO_R50_SHORT TOKYO_R30_DIR TOKYO_R30_LONG TOKYO_R30_SHORT TOKYO_LAND CMA_LAT CMA_LON CMA_CAT CMA_WIND CMA_PRES HKO_LAT HKO_LON HKO_CAT HKO_WIND HKO_PRES NEWDELHI_LAT NEWDELHI_LON NEWDELHI_GRADE NEWDELHI_WIND NEWDELHI_PRES NEWDELHI_CI NEWDELHI_DP NEWDELHI_POCI REUNION_LAT REUNION_LON REUNION_TYPE REUNION_WIND REUNION_PRES REUNION_TNUM REUNION_CI REUNION_RMW REUNION_R34_NE REUNION_R34_SE REUNION_R34_SW REUNION_R34_NW REUNION_R50_NE REUNION_R50_SE REUNION_R50_SW REUNION_R50_NW REUNION_R64_NE REUNION_R64_SE REUNION_R64_SW REUNION_R64_NW BOM_LAT BOM_LON BOM_TYPE BOM_WIND BOM_PRES BOM_TNUM BOM_CI BOM_RMW BOM_R34_NE BOM_R34_SE BOM_R34_SW BOM_R34_NW BOM_R50_NE BOM_R50_SE BOM_R50_SW BOM_R50_NW BOM_R64_NE BOM_R64_SE BOM_R64_SW BOM_R64_NW BOM_ROCI BOM_POCI BOM_EYE BOM_POS_METHOD BOM_PRES_METHOD NADI_LAT NADI_LON NADI_CAT NADI_WIND NADI_PRES WELLINGTON_LAT WELLINGTON_LON WELLINGTON_WIND WELLINGTON_PRES DS824_LAT DS824_LON DS824_STAGE DS824_WIND DS824_PRES TD9636_LAT TD9636_LON TD9636_STAGE TD9636_WIND TD9636_PRES TD9635_LAT TD9635_LON TD9635_WIND TD9635_PRES TD9635_ROCI NEUMANN_LAT NEUMANN_LON NEUMANN_CLASS NEUMANN_WIND NEUMANN_PRES MLC_LAT MLC_LON MLC_CLASS MLC_WIND MLC_PRES USA_GUST BOM_GUST BOM_GUST_PER REUNION_GUST REUNION_GUST_PER USA_SEAHGT USA_SEARAD_NE USA_SEARAD_SE USA_SEARAD_SW USA_SEARAD_NW STORM_SPEED STORM_DIR
1975305N15085 1975 124 NI BB NOT_NAMED 1975-11-01 00:00:00 TS 14.8000 84.8000 main 335 311 O________OO___ jtwc_io IO181975 14.8000 84.8000 -1 14.8000 84.8000 TC 25 14.8000 84.8000 1 5 308
1975305N15085 1975 124 NI BB NOT_NAMED 1975-11-01 03:00:00 TS 14.9495 84.5980 main 311 280 P________PP___ IO181975 14.9600 84.6001 -1 14.9600 84.6001 TC 25 14.9283 84.5939 1 5 306
1975305N15085 1975 124 NI BB NOT_NAMED 1975-11-01 06:00:00 TS 15.0851 84.3967 main 280 256 O________OP___ jtwc_io IO181975 15.1000 84.4000 -1 15.1000 84.4000 TC 25 15.0552 84.3901 1 5 303
1975305N15085 1975 124 NI BB NOT_NAMED 1975-11-01 09:00:00 TS 15.1982 84.1971 main 256 232 P________PP___ IO181975 15.2075 84.2000 -1 15.2075 84.2000 TC 25 15.1795 84.1913 1 4 299
1975305N15085 1975 124 NI BB NOT_NAMED 1975-11-01 12:00:00 TS 15.3000 84.0000 main 232 209 O________OO___ jtwc_io IO181975 15.3000 84.0000 -1 15.3000 84.0000 TC 25 15.3000 84.0000 1 4 299
1975305N15085 1975 124 NI BB NOT_NAMED 1975-11-01 15:00:00 TS 15.4095 83.8054 main 209 185 P________PP___ IO181975 15.4075 83.8000 -1 15.4075 83.8000 TC 25 15.4136 83.8163 1 4 298
1975305N15085 1975 124 NI BB NOT_NAMED 1975-11-01 18:00:00 TS 15.5032 83.6100 main 185 162 O________OP___ jtwc_io IO181975 15.5000 83.6000 -1 15.5000 83.6000 TC 25 15.5097 83.6301 1 4 294
1975305N15085 1975 124 NI BB NOT_NAMED 1975-11-01 21:00:00 TS 15.5736 83.4196 main 162 147 P________PP___ IO181975 15.5724 83.4150 -1 15.5724 83.4150 TC 25 15.5760 83.4289 1 4 284
1975305N15085 1975 124 NI BB NOT_NAMED 1975-11-02 00:00:00 TS 15.6000 83.2000 main 147 128 O________OO___ jtwc_io IO181975 15.6000 83.2000 -1 15.6000 83.2000 TC 25 15.6000 83.2000 1 5 270
1975305N15085 1975 124 NI BB NOT_NAMED 1975-11-02 03:00:00 TS 15.5711 82.9114 main 128 124 P________PP___ IO181975 15.5725 82.9150 -1 15.5725 82.9150 TC 25 15.5684 82.9041 1 6 260
1975305N15085 1975 124 NI BB NOT_NAMED 1975-11-02 06:00:00 TS 15.4985 82.5949 main 124 114 O________OP___ jtwc_io IO181975 15.5000 82.6000 -1 15.5000 82.6000 TC 25 15.4954 82.5846 1 6 254
1975305N15085 1975 124 NI BB NOT_NAMED 1975-11-02 09:00:00 TS 15.3999 82.2759 main 119 109 P________PP___ IO181975 15.4000 82.2774 -1 15.4000 82.2774 TC 30 15.3996 82.2729 1 6 251
1975305N15085 1975 124 NI BB NOT_NAMED 1975-11-02 12:00:00 TS 15.3000 82.0000 main 116 100 O________OO___ jtwc_io IO181975 15.3000 82.0000 -1 15.3000 82.0000 TC 35 15.3000 82.0000 2 5 250
1975305N15085 1975 124 NI BB NOT_NAMED 1975-11-02 15:00:00 TS 15.2415 81.8221 main 108 100 P________PP___ IO181975 15.2499 81.8276 -1 15.2499 81.8276 TC 30 15.2247 81.8111 2 3 249
1975305N15085 1975 124 NI BB NOT_NAMED 1975-11-02 18:00:00 TS 15.1832 81.6876 main 100 92 O________OP___ jtwc_io IO181975 15.2000 81.7000 -1 15.2000 81.7000 TC 25 15.1497 81.6627 2 3 241
1975305N15085 1975 124 NI BB NOT_NAMED 1975-11-02 21:00:00 TS 15.0916 81.5443 main 93 93 P________PP___ IO181975 15.1000 81.5500 -1 15.1000 81.5500 TC 25 15.0748 81.5329 2 3 236
1975305N15085 1975 124 NI BB NOT_NAMED 1975-11-03 00:00:00 TS 15.0000 81.4000 main 94 89 O________OO___ jtwc_io IO181975 15.0000 81.4000 -1 15.0000 81.4000 TC 25 15.0000 81.4000 1 3 242
1975305N15085 1975 124 NI BB NOT_NAMED 1975-11-03 03:00:00 TS 14.9417 81.2539 main 99 92 P________PP___ IO181975 14.9500 81.2575 -1 14.9500 81.2575 TC 25 14.9252 81.2468 1 3 249
1975305N15085 1975 124 NI BB NOT_NAMED 1975-11-03 06:00:00 TS 14.8834 81.0916 main 92 78 O________OP___ jtwc_io IO181975 14.9000 81.1000 -1 14.9000 81.1000 TC 25 14.8503 81.0748 1 4 247
1975305N15085 1975 124 NI BB NOT_NAMED 1975-11-03 09:00:00 TS 14.8001 80.9035 main 78 54 P________PP___ IO181975 14.8126 80.9099 -1 14.8126 80.9099 TC 25 14.7752 80.8905 1 4 244
1975305N15085 1975 124 NI BB NOT_NAMED 1975-11-03 12:00:00 TS 14.7000 80.7000 main 54 O________OO___ jtwc_io IO181975 14.7000 80.7000 -1 14.7000 80.7000 TC 25 14.7000 80.7000 6 4 243

About IBTrACS Database

This database is a web-friendly format of International Best Track Archive for Climate Stewardship (IBTrACS), a global best track data archive curated by NOAA dating back to 1842.

Updated: 2021-10-25